Malgrat de Mar, Spain
Current Conditions -  °F | °C
As of 5:00 AM on Wednesday 22 Oct 2014 (Local Time) from LEGE Reporting Station
Broken Clouds Broken Clouds  
Wind Chill: 59°   Ceiling: 2800
Heat Index: 59°   Visibility: 6mi
Dew Point: 52°   Wind: 10mph
Humidity: 77%   Direction: 60°ENE
Pressure: 30.09"   Gusts: NA
Location:  41.65°N, 2.74°E
Report Text: LEGE 220300Z 06009KT 9999 BKN028 15/11 Q1019
Loading
Personal Weather Stations






























Interactive Weather Map
Tropical Storm Tracking
New forecast layout! Learn more

10-Day Weather Forecast

Advertisements
Track Severe Weather on mobile